Airport Name : Jeju Intl

Other Name : Jeju Intl

ICAO : RKPC

IATA : CJU

FAA :

Latitude : 33.511306

Longitude : 126.493028

Country : South Korea

Local Date and Time : 17 May 2021 21:17

 

TAF (Terminal Aerodrome Forecast)

TAF RKPC 171100Z 1712/1818 27006KT 9999 SCT030 BKN200 TN14/1720Z TX20/1805Z BECMG 1713/1714 21006KT BECMG 1722/1723 34006KT CAVOK BECMG 1811/1812 21006KT 6000 NSC

 

METAR (METeorological Aerodrome Report)

RKPC 171200Z 26008KT 9999 SCT040 BKN130 16/12 Q1011 NOSIG

RKPC 171100Z 26006KT 230V290 9999 SCT040 BKN150 16/13 Q1010 NOSIG

RKPC 171000Z 27007KT 9999 BKN040 16/13 Q1010 NOSIG

RKPC 170900Z 28007KT 270V330 CAVOK 17/12 Q1009 NOSIG

To Charter a Jet Click here.